sensor_id;sensor_type;location;lat;lon;timestamp;pressure;altitude;pressure_sealevel;temperature;humidity
61324;BME280;47203;48.428;11.974;2023-05-24T00:01:21;96921.53;;;21.48;42.73
61324;BME280;47203;48.428;11.974;2023-05-24T00:03:29;96922.69;;;21.47;42.62
61324;BME280;47203;48.428;11.974;2023-05-24T00:05:36;96926.47;;;21.45;43.06
61324;BME280;47203;48.428;11.974;2023-05-24T00:07:44;96920.63;;;21.43;43.15
61324;BME280;47203;48.428;11.974;2023-05-24T00:09:49;96918.28;;;21.42;43.09
61324;BME280;47203;48.428;11.974;2023-05-24T00:11:54;96908.56;;;21.37;43.12
61324;BME280;47203;48.428;11.974;2023-05-24T00:13:59;96913.47;;;21.35;43.13
61324;BME280;47203;48.428;11.974;2023-05-24T00:16:04;96915.34;;;21.35;43.20
61324;BME280;47203;48.428;11.974;2023-05-24T00:18:09;96909.56;;;21.33;43.15
61324;BME280;47203;48.428;11.974;2023-05-24T00:20:14;96905.31;;;21.32;43.28
61324;BME280;47203;48.428;11.974;2023-05-24T00:22:21;96901.09;;;21.31;43.42
61324;BME280;47203;48.428;11.974;2023-05-24T00:24:29;96912.13;;;21.29;43.19
61324;BME280;47203;48.428;11.974;2023-05-24T00:26:34;96914.00;;;21.28;43.13
61324;BME280;47203;48.428;11.974;2023-05-24T00:28:39;96909.78;;;21.27;43.40
61324;BME280;47203;48.428;11.974;2023-05-24T00:30:45;96910.56;;;21.28;43.27
61324;BME280;47203;48.428;11.974;2023-05-24T00:32:49;96913.22;;;21.28;43.61
61324;BME280;47203;48.428;11.974;2023-05-24T00:34:54;96915.13;;;21.27;43.21
61324;BME280;47203;48.428;11.974;2023-05-24T00:36:59;96912.00;;;21.25;43.48
61324;BME280;47203;48.428;11.974;2023-05-24T00:39:04;96920.03;;;21.25;43.74
61324;BME280;47203;48.428;11.974;2023-05-24T00:41:12;96919.56;;;21.23;43.39
61324;BME280;47203;48.428;11.974;2023-05-24T00:43:17;96919.56;;;21.23;43.55
61324;BME280;47203;48.428;11.974;2023-05-24T00:45:22;96916.56;;;21.25;43.36
61324;BME280;47203;48.428;11.974;2023-05-24T00:47:27;96920.34;;;21.24;43.86
61324;BME280;47203;48.428;11.974;2023-05-24T00:49:33;96918.44;;;21.24;43.85
61324;BME280;47203;48.428;11.974;2023-05-24T00:51:38;96914.22;;;21.23;43.42
61324;BME280;47203;48.428;11.974;2023-05-24T00:53:45;96910.09;;;21.26;43.87
61324;BME280;47203;48.428;11.974;2023-05-24T00:55:50;96909.31;;;21.25;43.59
61324;BME280;47203;48.428;11.974;2023-05-24T00:57:58;96908.53;;;21.25;43.92
61324;BME280;47203;48.428;11.974;2023-05-24T01:00:06;96909.31;;;21.25;43.69
61324;BME280;47203;48.428;11.974;2023-05-24T01:02:12;96912.00;;;21.25;43.83
61324;BME280;47203;48.428;11.974;2023-05-24T01:04:18;96918.44;;;21.24;43.74
61324;BME280;47203;48.428;11.974;2023-05-24T01:06:24;96906.97;;;21.24;43.55
61324;BME280;47203;48.428;11.974;2023-05-24T01:08:42;96906.97;;;21.24;43.74
61324;BME280;47203;48.428;11.974;2023-05-24T01:10:54;96907.28;;;21.22;43.76
61324;BME280;47203;48.428;11.974;2023-05-24T01:13:16;96904.19;;;21.20;43.90
61324;BME280;47203;48.428;11.974;2023-05-24T01:15:30;96903.72;;;21.18;43.85
61324;BME280;47203;48.428;11.974;2023-05-24T01:17:43;96914.75;;;21.17;44.05
61324;BME280;47203;48.428;11.974;2023-05-24T01:19:51;96908.22;;;21.05;43.80
61324;BME280;47203;48.428;11.974;2023-05-24T01:22:05;96907.34;;;21.01;43.61
61324;BME280;47203;48.428;11.974;2023-05-24T01:24:19;96918.38;;;21.00;43.74
61324;BME280;47203;48.428;11.974;2023-05-24T01:26:37;96917.13;;;20.97;44.10
61324;BME280;47203;48.428;11.974;2023-05-24T01:28:46;96902.16;;;20.96;43.95
61324;BME280;47203;48.428;11.974;2023-05-24T01:30:52;96912.88;;;20.96;44.18
61324;BME280;47203;48.428;11.974;2023-05-24T01:32:58;96904.41;;;20.94;43.96
61324;BME280;47203;48.428;11.974;2023-05-24T01:35:04;96907.84;;;20.95;44.10
61324;BME280;47203;48.428;11.974;2023-05-24T01:37:09;96910.53;;;20.95;44.12
61324;BME280;47203;48.428;11.974;2023-05-24T01:39:14;96914.78;;;20.96;44.22
61324;BME280;47203;48.428;11.974;2023-05-24T01:41:29;96915.88;;;20.95;44.68
61324;BME280;47203;48.428;11.974;2023-05-24T01:43:41;96903.59;;;20.93;44.53
61324;BME280;47203;48.428;11.974;2023-05-24T01:45:58;96908.94;;;20.93;44.79
61324;BME280;47203;48.428;11.974;2023-05-24T01:48:10;96899.03;;;20.94;44.36
61324;BME280;47203;48.428;11.974;2023-05-24T01:50:25;96905.16;;;20.95;44.28
61324;BME280;47203;48.428;11.974;2023-05-24T01:52:33;96910.84;;;20.93;44.12
61324;BME280;47203;48.428;11.974;2023-05-24T01:54:46;96906.59;;;20.92;44.67
61324;BME280;47203;48.428;11.974;2023-05-24T01:56:52;96908.16;;;20.93;44.38
61324;BME280;47203;48.428;11.974;2023-05-24T01:58:59;96915.44;;;20.92;44.58
61324;BME280;47203;48.428;11.974;2023-05-24T02:01:08;96904.72;;;20.92;44.70
61324;BME280;47203;48.428;11.974;2023-05-24T02:03:14;96904.72;;;20.92;44.60
61324;BME280;47203;48.428;11.974;2023-05-24T02:05:20;96913.53;;;20.93;44.61
61324;BME280;47203;48.428;11.974;2023-05-24T02:07:25;96912.75;;;20.92;44.39
61324;BME280;47203;48.428;11.974;2023-05-24T02:09:30;96910.84;;;20.93;44.48
61324;BME280;47203;48.428;11.974;2023-05-24T02:11:36;96910.84;;;20.93;44.69
61324;BME280;47203;48.428;11.974;2023-05-24T02:13:40;96912.75;;;20.92;44.60
61324;BME280;47203;48.428;11.974;2023-05-24T02:15:45;96914.63;;;20.92;44.55
61324;BME280;47203;48.428;11.974;2023-05-24T02:17:55;96917.63;;;20.90;44.70
61324;BME280;47203;48.428;11.974;2023-05-24T02:20:04;96907.25;;;20.89;44.60
61324;BME280;47203;48.428;11.974;2023-05-24T02:22:09;96912.59;;;20.89;44.25
61324;BME280;47203;48.428;11.974;2023-05-24T02:24:15;96909.16;;;20.88;44.38
61324;BME280;47203;48.428;11.974;2023-05-24T02:26:20;96906.47;;;20.88;44.52
61324;BME280;47203;48.428;11.974;2023-05-24T02:28:25;96908.34;;;20.88;44.14
61324;BME280;47203;48.428;11.974;2023-05-24T02:30:33;96912.94;;;20.87;44.47
61324;BME280;47203;48.428;11.974;2023-05-24T02:32:39;96910.25;;;20.87;44.40
61324;BME280;47203;48.428;11.974;2023-05-24T02:34:47;96909.81;;;20.85;44.58
61324;BME280;47203;48.428;11.974;2023-05-24T02:36:52;96913.25;;;20.86;44.34
61324;BME280;47203;48.428;11.974;2023-05-24T02:38:57;96905.56;;;20.84;44.62
61324;BME280;47203;48.428;11.974;2023-05-24T02:41:02;96907.00;;;20.82;44.23
61324;BME280;47203;48.428;11.974;2023-05-24T02:43:09;96913.78;;;20.79;44.38
61324;BME280;47203;48.428;11.974;2023-05-24T02:45:14;96917.09;;;20.76;44.59
61324;BME280;47203;48.428;11.974;2023-05-24T02:47:19;96916.31;;;20.75;44.50
61324;BME280;47203;48.428;11.974;2023-05-24T02:49:24;96916.97;;;20.72;44.39
61324;BME280;47203;48.428;11.974;2023-05-24T02:51:31;96909.28;;;20.71;44.15
61324;BME280;47203;48.428;11.974;2023-05-24T02:53:38;96906.13;;;20.69;44.08
61324;BME280;47203;48.428;11.974;2023-05-24T02:55:44;96904.59;;;20.68;44.44
61324;BME280;47203;48.428;11.974;2023-05-24T02:57:49;96906.75;;;20.66;44.19
61324;BME280;47203;48.428;11.974;2023-05-24T02:59:54;96912.44;;;20.64;44.12
61324;BME280;47203;48.428;11.974;2023-05-24T03:02:00;96910.84;;;20.63;43.94
61324;BME280;47203;48.428;11.974;2023-05-24T03:04:06;96906.50;;;20.58;44.35
61324;BME280;47203;48.428;11.974;2023-05-24T03:06:11;96913.72;;;20.58;44.34
61324;BME280;47203;48.428;11.974;2023-05-24T03:08:22;96910.13;;;20.54;44.40
61324;BME280;47203;48.428;11.974;2023-05-24T03:10:27;96910.47;;;20.52;44.19
61324;BME280;47203;48.428;11.974;2023-05-24T03:12:32;96911.56;;;20.51;44.25
61324;BME280;47203;48.428;11.974;2023-05-24T03:14:37;96913.34;;;20.47;43.95
61324;BME280;47203;48.428;11.974;2023-05-24T03:16:42;96916.63;;;20.44;43.85
61324;BME280;47203;48.428;11.974;2023-05-24T03:18:47;96912.25;;;20.39;43.92
61324;BME280;47203;48.428;11.974;2023-05-24T03:20:53;96922.84;;;20.36;43.97
61324;BME280;47203;48.428;11.974;2023-05-24T03:22:58;96915.78;;;20.31;43.85
61324;BME280;47203;48.428;11.974;2023-05-24T03:25:08;96922.88;;;20.27;44.18
61324;BME280;47203;48.428;11.974;2023-05-24T03:27:13;96922.41;;;20.25;43.89
61324;BME280;47203;48.428;11.974;2023-05-24T03:29:18;96919.59;;;20.21;44.27
61324;BME280;47203;48.428;11.974;2023-05-24T03:31:24;96918.34;;;20.19;44.11
61324;BME280;47203;48.428;11.974;2023-05-24T03:33:29;96925.09;;;20.16;44.26
61324;BME280;47203;48.428;11.974;2023-05-24T03:35:35;96928.41;;;20.13;44.13
61324;BME280;47203;48.428;11.974;2023-05-24T03:37:40;96925.31;;;20.11;44.09
61324;BME280;47203;48.428;11.974;2023-05-24T03:39:45;96928.28;;;20.10;43.95
61324;BME280;47203;48.428;11.974;2023-05-24T03:42:12;96923.13;;;20.04;44.40
61324;BME280;47203;48.428;11.974;2023-05-24T03:44:17;96929.59;;;20.03;44.32
61324;BME280;47203;48.428;11.974;2023-05-24T03:46:21;96929.59;;;20.03;44.39
61324;BME280;47203;48.428;11.974;2023-05-24T03:48:26;96929.91;;;20.02;44.22
61324;BME280;47203;48.428;11.974;2023-05-24T03:50:33;96928.31;;;20.01;44.49
61324;BME280;47203;48.428;11.974;2023-05-24T03:52:38;96923.00;;;20.01;44.50
61324;BME280;47203;48.428;11.974;2023-05-24T03:54:43;96925.97;;;19.99;44.46
61324;BME280;47203;48.428;11.974;2023-05-24T03:56:48;96920.31;;;20.01;44.46
61324;BME280;47203;48.428;11.974;2023-05-24T03:58:57;96918.75;;;20.00;44.34
61324;BME280;47203;48.428;11.974;2023-05-24T04:01:06;96926.75;;;20.00;44.47
61324;BME280;47203;48.428;11.974;2023-05-24T04:03:30;96933.19;;;19.99;44.42
61324;BME280;47203;48.428;11.974;2023-05-24T04:05:36;96931.31;;;19.99;44.67
61324;BME280;47203;48.428;11.974;2023-05-24T04:07:41;96939.34;;;19.99;44.46
61324;BME280;47203;48.428;11.974;2023-05-24T04:09:47;96942.00;;;19.99;44.57
61324;BME280;47203;48.428;11.974;2023-05-24T04:11:52;96932.88;;;20.00;44.61
61324;BME280;47203;48.428;11.974;2023-05-24T04:13:59;96931.31;;;19.99;44.94
61324;BME280;47203;48.428;11.974;2023-05-24T04:16:05;96936.34;;;20.01;44.84
61324;BME280;47203;48.428;11.974;2023-05-24T04:18:10;96937.91;;;20.02;44.80
61324;BME280;47203;48.428;11.974;2023-05-24T04:20:15;96935.25;;;20.02;44.83
61324;BME280;47203;48.428;11.974;2023-05-24T04:22:23;96937.13;;;20.01;44.56
61324;BME280;47203;48.428;11.974;2023-05-24T04:24:28;96939.78;;;20.01;44.85
61324;BME280;47203;48.428;11.974;2023-05-24T04:26:33;96940.59;;;20.02;44.80
61324;BME280;47203;48.428;11.974;2023-05-24T04:28:39;96940.59;;;20.02;45.04
61324;BME280;47203;48.428;11.974;2023-05-24T04:30:50;96944.81;;;20.03;45.10
61324;BME280;47203;48.428;11.974;2023-05-24T04:32:57;96941.38;;;20.02;44.66
61324;BME280;47203;48.428;11.974;2023-05-24T04:35:04;96942.13;;;20.03;44.88
61324;BME280;47203;48.428;11.974;2023-05-24T04:37:10;96948.28;;;20.03;44.76
61324;BME280;47203;48.428;11.974;2023-05-24T04:39:20;96944.81;;;20.03;45.00
61324;BME280;47203;48.428;11.974;2023-05-24T04:41:25;96938.38;;;20.04;45.15
61324;BME280;47203;48.428;11.974;2023-05-24T04:43:33;96942.63;;;20.05;44.93
61324;BME280;47203;48.428;11.974;2023-05-24T04:45:38;96943.72;;;20.04;44.92
61324;BME280;47203;48.428;11.974;2023-05-24T04:47:45;96941.03;;;20.04;44.70
61324;BME280;47203;48.428;11.974;2023-05-24T04:49:50;96941.03;;;20.04;44.79
61324;BME280;47203;48.428;11.974;2023-05-24T04:51:56;96941.81;;;20.04;44.60
61324;BME280;47203;48.428;11.974;2023-05-24T04:54:01;96944.81;;;20.03;44.88
61324;BME280;47203;48.428;11.974;2023-05-24T04:56:10;96942.94;;;20.03;45.13
61324;BME280;47203;48.428;11.974;2023-05-24T04:58:17;96946.38;;;20.04;44.80
61324;BME280;47203;48.428;11.974;2023-05-24T05:00:23;96950.16;;;20.03;44.91
61324;BME280;47203;48.428;11.974;2023-05-24T05:02:28;96949.84;;;20.04;44.90
61324;BME280;47203;48.428;11.974;2023-05-24T05:04:36;96951.72;;;20.04;44.97
61324;BME280;47203;48.428;11.974;2023-05-24T05:06:41;96951.41;;;20.05;44.92
61324;BME280;47203;48.428;11.974;2023-05-24T05:08:47;96951.09;;;20.07;44.92
61324;BME280;47203;48.428;11.974;2023-05-24T05:10:52;96954.53;;;20.08;45.08
61324;BME280;47203;48.428;11.974;2023-05-24T05:12:57;96944.66;;;20.08;45.13
61324;BME280;47203;48.428;11.974;2023-05-24T05:15:03;96951.53;;;20.09;45.08
61324;BME280;47203;48.428;11.974;2023-05-24T05:17:08;96954.22;;;20.09;45.02
61324;BME280;47203;48.428;11.974;2023-05-24T05:19:14;96947.78;;;20.10;45.02
61324;BME280;47203;48.428;11.974;2023-05-24T05:21:22;96949.66;;;20.10;44.96
61324;BME280;47203;48.428;11.974;2023-05-24T05:23:27;96949.66;;;20.10;45.37
61324;BME280;47203;48.428;11.974;2023-05-24T05:25:32;96944.00;;;20.11;44.99
61324;BME280;47203;48.428;11.974;2023-05-24T05:27:36;96937.56;;;20.12;45.10
61324;BME280;47203;48.428;11.974;2023-05-24T05:29:41;96940.25;;;20.12;44.93
61324;BME280;47203;48.428;11.974;2023-05-24T05:31:47;96934.91;;;20.12;45.21
61324;BME280;47203;48.428;11.974;2023-05-24T05:33:52;96934.56;;;20.14;45.07
61324;BME280;47203;48.428;11.974;2023-05-24T05:35:57;96938.47;;;20.16;45.31
61324;BME280;47203;48.428;11.974;2023-05-24T05:38:05;96935.78;;;20.16;45.31
61324;BME280;47203;48.428;11.974;2023-05-24T05:40:11;96933.28;;;20.20;45.21
61324;BME280;47203;48.428;11.974;2023-05-24T05:42:16;96931.69;;;20.19;45.20
61324;BME280;47203;48.428;11.974;2023-05-24T05:44:21;96937.84;;;20.19;45.22
61324;BME280;47203;48.428;11.974;2023-05-24T05:46:26;96931.38;;;20.20;45.03
61324;BME280;47203;48.428;11.974;2023-05-24T05:48:31;96931.38;;;20.20;45.20
61324;BME280;47203;48.428;11.974;2023-05-24T05:50:36;96929.03;;;20.19;45.08
61324;BME280;47203;48.428;11.974;2023-05-24T05:52:42;96932.81;;;20.18;45.02
61324;BME280;47203;48.428;11.974;2023-05-24T05:54:49;96932.81;;;20.18;45.10
61324;BME280;47203;48.428;11.974;2023-05-24T05:56:55;96937.84;;;20.19;44.88
61324;BME280;47203;48.428;11.974;2023-05-24T05:59:02;96933.59;;;20.18;45.02
61324;BME280;47203;48.428;11.974;2023-05-24T06:01:07;96930.94;;;20.18;45.23
61324;BME280;47203;48.428;11.974;2023-05-24T06:03:12;96930.59;;;20.20;45.10
61324;BME280;47203;48.428;11.974;2023-05-24T06:05:18;96937.53;;;20.21;45.06
61324;BME280;47203;48.428;11.974;2023-05-24T06:07:23;96934.69;;;20.17;45.14
61324;BME280;47203;48.428;11.974;2023-05-24T06:09:28;96938.47;;;20.16;45.40
61324;BME280;47203;48.428;11.974;2023-05-24T06:11:36;96934.25;;;20.15;45.25
61324;BME280;47203;48.428;11.974;2023-05-24T06:13:45;96928.91;;;20.15;45.11
61324;BME280;47203;48.428;11.974;2023-05-24T06:15:50;96940.03;;;20.17;45.27
61324;BME280;47203;48.428;11.974;2023-05-24T06:17:55;96935.03;;;20.16;45.05
61324;BME280;47203;48.428;11.974;2023-05-24T06:20:01;96941.78;;;20.13;45.03
61324;BME280;47203;48.428;11.974;2023-05-24T06:22:07;96941.00;;;20.13;45.25
61324;BME280;47203;48.428;11.974;2023-05-24T06:24:12;96944.78;;;20.12;45.18
61324;BME280;47203;48.428;11.974;2023-05-24T06:26:21;96944.78;;;20.12;45.21
61324;BME280;47203;48.428;11.974;2023-05-24T06:28:30;96938.97;;;20.10;45.14
61324;BME280;47203;48.428;11.974;2023-05-24T06:30:38;96950.00;;;20.08;45.11
61324;BME280;47203;48.428;11.974;2023-05-24T06:32:44;96941.19;;;20.08;44.90
61324;BME280;47203;48.428;11.974;2023-05-24T06:34:51;96945.75;;;20.07;45.22
61324;BME280;47203;48.428;11.974;2023-05-24T06:36:56;96943.41;;;20.05;44.89
61324;BME280;47203;48.428;11.974;2023-05-24T06:39:02;96945.28;;;20.05;44.89
61324;BME280;47203;48.428;11.974;2023-05-24T06:41:07;96944.66;;;20.08;44.91
61324;BME280;47203;48.428;11.974;2023-05-24T06:43:12;96937.56;;;20.12;45.15
61324;BME280;47203;48.428;11.974;2023-05-24T06:45:23;96943.03;;;20.16;45.43
61324;BME280;47203;48.428;11.974;2023-05-24T06:47:28;96941.28;;;20.20;45.50
61324;BME280;47203;48.428;11.974;2023-05-24T06:49:34;96941.91;;;20.26;45.31
61324;BME280;47203;48.428;11.974;2023-05-24T06:51:39;96945.50;;;20.30;44.98
61324;BME280;47203;48.428;11.974;2023-05-24T06:53:44;96950.97;;;20.33;45.04
61324;BME280;47203;48.428;11.974;2023-05-24T06:55:48;96950.34;;;20.36;44.79
61324;BME280;47203;48.428;11.974;2023-05-24T06:57:56;96950.50;;;20.40;45.22
61324;BME280;47203;48.428;11.974;2023-05-24T07:00:02;96952.97;;;20.45;45.25
61324;BME280;47203;48.428;11.974;2023-05-24T07:02:13;96952.63;;;20.47;44.67
61324;BME280;47203;48.428;11.974;2023-05-24T07:04:18;96959.69;;;20.51;45.12
61324;BME280;47203;48.428;11.974;2023-05-24T07:06:23;96953.69;;;20.54;44.85
61324;BME280;47203;48.428;11.974;2023-05-24T07:08:27;96959.53;;;20.56;45.07
61324;BME280;47203;48.428;11.974;2023-05-24T07:10:32;96956.97;;;20.60;44.52
61324;BME280;47203;48.428;11.974;2023-05-24T07:12:37;96952.88;;;20.63;44.53
61324;BME280;47203;48.428;11.974;2023-05-24T07:14:43;96954.13;;;20.65;44.94
61324;BME280;47203;48.428;11.974;2023-05-24T07:16:48;96957.28;;;20.67;45.09
61324;BME280;47203;48.428;11.974;2023-05-24T07:18:58;96952.06;;;20.71;44.88
61324;BME280;47203;48.428;11.974;2023-05-24T07:21:05;96950.31;;;20.75;45.11
61324;BME280;47203;48.428;11.974;2023-05-24T07:23:10;96952.78;;;20.80;44.96
61324;BME280;47203;48.428;11.974;2023-05-24T07:25:15;96958.75;;;20.86;44.68
61324;BME280;47203;48.428;11.974;2023-05-24T07:27:20;96956.97;;;20.90;44.71
61324;BME280;47203;48.428;11.974;2023-05-24T07:29:26;96952.56;;;20.94;44.98
61324;BME280;47203;48.428;11.974;2023-05-24T07:31:31;96953.44;;;20.98;44.63
61324;BME280;47203;48.428;11.974;2023-05-24T07:33:36;96950.91;;;21.02;44.38
61324;BME280;47203;48.428;11.974;2023-05-24T07:35:43;96948.69;;;21.04;44.24
61324;BME280;47203;48.428;11.974;2023-05-24T07:37:52;96962.53;;;21.06;44.35
61324;BME280;47203;48.428;11.974;2023-05-24T07:39:57;96963.31;;;21.06;44.01
61324;BME280;47203;48.428;11.974;2023-05-24T07:42:02;96962.22;;;21.07;44.15
61324;BME280;47203;48.428;11.974;2023-05-24T07:44:08;96959.22;;;21.09;44.44
61324;BME280;47203;48.428;11.974;2023-05-24T07:46:12;96960.78;;;21.10;43.96
61324;BME280;47203;48.428;11.974;2023-05-24T07:48:17;96957.78;;;21.12;43.89
61324;BME280;47203;48.428;11.974;2023-05-24T07:50:23;96957.78;;;21.12;43.69
61324;BME280;47203;48.428;11.974;2023-05-24T07:52:33;96960.13;;;21.13;44.07
61324;BME280;47203;48.428;11.974;2023-05-24T07:54:39;96961.34;;;21.16;44.16
61324;BME280;47203;48.428;11.974;2023-05-24T07:56:44;96964.16;;;21.19;44.46
61324;BME280;47203;48.428;11.974;2023-05-24T07:58:49;96969.19;;;21.21;44.27
61324;BME280;47203;48.428;11.974;2023-05-24T08:00:57;96966.97;;;21.23;43.88
61324;BME280;47203;48.428;11.974;2023-05-24T08:03:03;96967.44;;;21.25;43.53
61324;BME280;47203;48.428;11.974;2023-05-24T08:05:10;96968.69;;;21.27;43.49
61324;BME280;47203;48.428;11.974;2023-05-24T08:07:15;96971.03;;;21.29;43.54
61324;BME280;47203;48.428;11.974;2023-05-24T08:09:23;96971.47;;;21.31;43.47
61324;BME280;47203;48.428;11.974;2023-05-24T08:11:30;96966.13;;;21.31;43.25
61324;BME280;47203;48.428;11.974;2023-05-24T08:13:35;96971.13;;;21.33;43.34
61324;BME280;47203;48.428;11.974;2023-05-24T08:15:40;96971.59;;;21.35;43.08
61324;BME280;47203;48.428;11.974;2023-05-24T08:17:45;96958.66;;;21.37;43.32
61324;BME280;47203;48.428;11.974;2023-05-24T08:19:50;96973.31;;;21.39;43.25
61324;BME280;47203;48.428;11.974;2023-05-24T08:21:55;96967.28;;;21.42;43.17
61324;BME280;47203;48.428;11.974;2023-05-24T08:24:05;96966.16;;;21.43;42.99
61324;BME280;47203;48.428;11.974;2023-05-24T08:26:13;96963.16;;;21.45;42.74
61324;BME280;47203;48.428;11.974;2023-05-24T08:28:19;96965.97;;;21.49;42.71
61324;BME280;47203;48.428;11.974;2023-05-24T08:30:24;96961.88;;;21.51;42.96
61324;BME280;47203;48.428;11.974;2023-05-24T08:32:30;96968.00;;;21.52;42.41
61324;BME280;47203;48.428;11.974;2023-05-24T08:34:35;96964.22;;;21.53;43.04
61324;BME280;47203;48.428;11.974;2023-05-24T08:36:41;96961.22;;;21.54;42.76
61324;BME280;47203;48.428;11.974;2023-05-24T08:38:46;96979.31;;;21.57;42.95
61324;BME280;47203;48.428;11.974;2023-05-24T08:40:52;96967.47;;;21.58;42.82
61324;BME280;47203;48.428;11.974;2023-05-24T08:43:00;96962.91;;;21.59;42.40
61324;BME280;47203;48.428;11.974;2023-05-24T08:45:10;96971.84;;;21.63;42.54
61324;BME280;47203;48.428;11.974;2023-05-24T08:47:16;96965.50;;;21.68;42.63
61324;BME280;47203;48.428;11.974;2023-05-24T08:49:21;96977.13;;;21.72;42.42
61324;BME280;47203;48.428;11.974;2023-05-24T08:51:26;96980.72;;;21.76;42.50
61324;BME280;47203;48.428;11.974;2023-05-24T08:53:31;96973.88;;;21.78;42.27
61324;BME280;47203;48.428;11.974;2023-05-24T08:55:38;96975.94;;;21.82;42.06
61324;BME280;47203;48.428;11.974;2023-05-24T08:57:45;96970.69;;;21.85;41.96
61324;BME280;47203;48.428;11.974;2023-05-24T08:59:53;96979.16;;;21.87;41.82
61324;BME280;47203;48.428;11.974;2023-05-24T09:01:59;96981.97;;;21.91;42.06
61324;BME280;47203;48.428;11.974;2023-05-24T09:04:06;96981.31;;;21.94;41.81
61324;BME280;47203;48.428;11.974;2023-05-24T09:06:13;96971.03;;;21.96;41.43
61324;BME280;47203;48.428;11.974;2023-05-24T09:08:20;96976.53;;;22.00;41.35
61324;BME280;47203;48.428;11.974;2023-05-24T09:10:27;96978.53;;;22.03;41.34
61324;BME280;47203;48.428;11.974;2023-05-24T09:12:55;96974.75;;;22.04;41.43
61324;BME280;47203;48.428;11.974;2023-05-24T09:15:03;96978.63;;;22.06;40.79
61324;BME280;47203;48.428;11.974;2023-05-24T09:17:09;96980.69;;;22.09;41.15
61324;BME280;47203;48.428;11.974;2023-05-24T09:19:18;96974.50;;;22.09;41.16
61324;BME280;47203;48.428;11.974;2023-05-24T09:21:24;96976.84;;;22.10;41.01
61324;BME280;47203;48.428;11.974;2023-05-24T09:23:31;96973.41;;;22.10;40.70
61324;BME280;47203;48.428;11.974;2023-05-24T09:25:36;96976.09;;;22.10;40.66
61324;BME280;47203;48.428;11.974;2023-05-24T09:27:49;96984.47;;;22.08;40.23
61324;BME280;47203;48.428;11.974;2023-05-24T09:29:54;96981.00;;;22.08;40.49
61324;BME280;47203;48.428;11.974;2023-05-24T09:32:06;96978.97;;;22.05;40.51
61324;BME280;47203;48.428;11.974;2023-05-24T09:34:14;96991.94;;;22.03;40.07
61324;BME280;47203;48.428;11.974;2023-05-24T09:36:19;96985.00;;;22.02;40.44
61324;BME280;47203;48.428;11.974;2023-05-24T09:38:24;96980.31;;;21.99;40.72
61324;BME280;47203;48.428;11.974;2023-05-24T09:40:30;96986.00;;;21.97;40.39
61324;BME280;47203;48.428;11.974;2023-05-24T09:42:35;96980.97;;;21.95;40.45
61324;BME280;47203;48.428;11.974;2023-05-24T09:44:40;96980.19;;;21.95;40.43
61324;BME280;47203;48.428;11.974;2023-05-24T09:46:45;96987.44;;;21.94;40.66
61324;BME280;47203;48.428;11.974;2023-05-24T09:48:59;96981.31;;;21.94;39.85
61324;BME280;47203;48.428;11.974;2023-05-24T09:51:05;96979.41;;;21.94;40.44
61324;BME280;47203;48.428;11.974;2023-05-24T09:53:15;96990.91;;;21.95;39.96
61324;BME280;47203;48.428;11.974;2023-05-24T09:55:21;96987.09;;;21.96;40.11
61324;BME280;47203;48.428;11.974;2023-05-24T09:57:27;96995.13;;;21.96;40.20
61324;BME280;47203;48.428;11.974;2023-05-24T09:59:33;97000.50;;;21.96;40.11
61324;BME280;47203;48.428;11.974;2023-05-24T10:01:38;96998.97;;;21.95;40.34
61324;BME280;47203;48.428;11.974;2023-05-24T10:03:51;96999.28;;;21.93;39.90
61324;BME280;47203;48.428;11.974;2023-05-24T10:05:58;96989.44;;;21.85;40.63
61324;BME280;47203;48.428;11.974;2023-05-24T10:08:05;96996.03;;;21.88;40.69
61324;BME280;47203;48.428;11.974;2023-05-24T10:10:11;96995.69;;;21.89;40.31
61324;BME280;47203;48.428;11.974;2023-05-24T10:12:16;96997.72;;;21.92;40.17
61324;BME280;47203;48.428;11.974;2023-05-24T10:14:24;96997.72;;;21.92;40.16
61324;BME280;47203;48.428;11.974;2023-05-24T10:16:29;96990.13;;;21.94;40.31
61324;BME280;47203;48.428;11.974;2023-05-24T10:18:35;96985.56;;;21.95;40.15
61324;BME280;47203;48.428;11.974;2023-05-24T10:20:40;96991.81;;;21.99;40.06
61324;BME280;47203;48.428;11.974;2023-05-24T10:22:51;96992.69;;;22.03;39.98
61324;BME280;47203;48.428;11.974;2023-05-24T10:24:56;96992.84;;;22.07;39.86
61324;BME280;47203;48.428;11.974;2023-05-24T10:27:05;96993.28;;;22.09;39.96
61324;BME280;47203;48.428;11.974;2023-05-24T10:29:18;96992.94;;;22.10;39.03
61324;BME280;47203;48.428;11.974;2023-05-24T10:31:31;96992.59;;;22.12;39.18
61324;BME280;47203;48.428;11.974;2023-05-24T10:33:37;96994.94;;;22.13;39.36
61324;BME280;47203;48.428;11.974;2023-05-24T10:35:43;96996.88;;;22.13;39.43
61324;BME280;47203;48.428;11.974;2023-05-24T10:37:52;96997.19;;;22.11;39.32
61324;BME280;47203;48.428;11.974;2023-05-24T10:39:59;96993.28;;;22.09;39.52
61324;BME280;47203;48.428;11.974;2023-05-24T10:42:05;96992.84;;;22.07;39.31
61324;BME280;47203;48.428;11.974;2023-05-24T10:44:11;96985.00;;;22.02;39.13
61324;BME280;47203;48.428;11.974;2023-05-24T10:46:17;96989.91;;;22.00;39.30
61324;BME280;47203;48.428;11.974;2023-05-24T10:48:38;96988.69;;;21.97;39.09
61324;BME280;47203;48.428;11.974;2023-05-24T10:50:44;96984.41;;;21.96;39.48
61324;BME280;47203;48.428;11.974;2023-05-24T10:53:10;96992.78;;;21.94;39.36
61324;BME280;47203;48.428;11.974;2023-05-24T10:55:15;96991.69;;;21.95;39.55
61324;BME280;47203;48.428;11.974;2023-05-24T10:57:22;96997.38;;;21.94;39.52
61324;BME280;47203;48.428;11.974;2023-05-24T10:59:32;96994.69;;;21.94;38.83
61324;BME280;47203;48.428;11.974;2023-05-24T11:01:38;97002.31;;;21.92;39.25
61324;BME280;47203;48.428;11.974;2023-05-24T11:03:43;97000.41;;;21.92;39.24